createdAt,value
2023-02-01T00:01:39.556Z,2
2023-02-01T00:03:23.198Z,2
2023-02-01T00:05:06.922Z,3
2023-02-01T00:06:50.592Z,1
2023-02-01T00:08:34.304Z,2
2023-02-01T00:10:18.012Z,3
2023-02-01T00:12:01.752Z,10
2023-02-01T00:13:45.430Z,10
2023-02-01T00:15:29.107Z,11
2023-02-01T00:17:12.815Z,3
2023-02-01T00:18:56.519Z,2
2023-02-01T00:20:40.217Z,3
2023-02-01T00:22:23.930Z,2
2023-02-01T00:24:07.642Z,2
2023-02-01T00:25:51.331Z,3
2023-02-01T00:27:35.042Z,2
2023-02-01T00:29:18.736Z,2
2023-02-01T00:31:02.449Z,2
2023-02-01T00:32:46.150Z,2
2023-02-01T00:34:29.840Z,2
2023-02-01T00:36:13.548Z,2
2023-02-01T00:37:57.253Z,3
2023-02-01T00:39:40.959Z,11
2023-02-01T00:41:24.658Z,11
2023-02-01T00:43:08.357Z,10
2023-02-01T00:44:52.060Z,3
2023-02-01T00:46:35.775Z,2
2023-02-01T00:48:19.468Z,3
2023-02-01T00:50:03.164Z,2
2023-02-01T00:51:46.868Z,2
2023-02-01T00:53:30.580Z,2
2023-02-01T00:55:14.295Z,3
2023-02-01T00:56:58.043Z,2
2023-02-01T00:58:41.690Z,2
2023-02-01T01:00:25.398Z,2
2023-02-01T01:02:09.091Z,2
2023-02-01T01:03:52.793Z,2
2023-02-01T01:05:36.522Z,2
2023-02-01T01:07:20.190Z,2
2023-02-01T01:09:03.915Z,3
2023-02-01T01:10:47.606Z,2
2023-02-01T01:12:31.306Z,2
2023-02-01T01:14:15.007Z,2
2023-02-01T01:15:58.745Z,3
2023-02-01T01:17:42.415Z,2
2023-02-01T01:19:26.123Z,2
2023-02-01T01:21:09.823Z,2
2023-02-01T01:22:53.526Z,2
2023-02-01T01:24:37.226Z,3
2023-02-01T01:26:20.991Z,3
2023-02-01T01:28:04.621Z,2
2023-02-01T01:29:48.356Z,3
2023-02-01T01:31:32.033Z,2
2023-02-01T01:33:15.739Z,2
2023-02-01T01:34:59.455Z,2
2023-02-01T01:36:43.171Z,2
2023-02-01T01:38:26.857Z,2
2023-02-01T01:40:10.544Z,2
2023-02-01T01:41:54.252Z,2
2023-02-01T01:43:37.956Z,1
2023-02-01T01:45:21.654Z,2
2023-02-01T01:47:05.358Z,2
2023-02-01T01:48:49.068Z,2
2023-02-01T01:50:32.776Z,2
2023-02-01T01:52:16.474Z,3
2023-02-01T01:54:00.174Z,2
2023-02-01T01:55:43.885Z,2
2023-02-01T01:57:27.591Z,2
2023-02-01T01:59:11.277Z,2
2023-02-01T02:00:54.983Z,3
2023-02-01T02:02:38.687Z,3
2023-02-01T02:04:22.390Z,1
2023-02-01T02:06:06.088Z,2
2023-02-01T02:07:49.793Z,2
2023-02-01T02:09:33.506Z,2
2023-02-01T02:11:17.195Z,2
2023-02-01T02:13:00.914Z,2
2023-02-01T02:14:44.603Z,2
2023-02-01T02:16:28.314Z,2
2023-02-01T02:18:12.048Z,1
2023-02-01T02:19:55.720Z,2
2023-02-01T02:21:39.430Z,2
2023-02-01T02:23:23.122Z,2
2023-02-01T02:25:06.885Z,2
2023-02-01T02:26:50.524Z,2
2023-02-01T02:28:34.239Z,3
2023-02-01T02:30:17.953Z,1
2023-02-01T02:32:01.632Z,2
2023-02-01T02:33:45.335Z,3
2023-02-01T02:35:29.065Z,2
2023-02-01T02:37:12.739Z,2
2023-02-01T02:38:56.448Z,2
2023-02-01T02:40:40.148Z,2
2023-02-01T02:42:23.854Z,1
2023-02-01T02:44:07.558Z,2
2023-02-01T02:45:51.259Z,3
2023-02-01T02:47:34.963Z,2
2023-02-01T02:49:18.663Z,3
2023-02-01T02:51:02.366Z,2
2023-02-01T02:52:46.068Z,2
2023-02-01T02:54:29.775Z,2
2023-02-01T02:56:13.465Z,2
2023-02-01T02:57:57.188Z,3
2023-02-01T02:59:40.870Z,2
2023-02-01T03:01:24.576Z,2
2023-02-01T03:03:08.281Z,2
2023-02-01T03:04:51.989Z,3
2023-02-01T03:06:35.697Z,3
2023-02-01T03:08:19.376Z,2
2023-02-01T03:10:03.087Z,1
2023-02-01T03:11:46.786Z,3
2023-02-01T03:13:30.483Z,3
2023-02-01T03:15:14.202Z,2
2023-02-01T03:16:57.895Z,2
2023-02-01T03:18:41.597Z,2
2023-02-01T03:20:25.309Z,2
2023-02-01T03:22:09.116Z,3
2023-02-01T03:23:52.708Z,2
2023-02-01T03:25:36.413Z,2
2023-02-01T03:27:20.116Z,2
2023-02-01T03:29:03.815Z,2
2023-02-01T03:30:47.594Z,2
2023-02-01T03:32:31.225Z,2
2023-02-01T03:34:14.933Z,2
2023-02-01T03:35:58.623Z,3
2023-02-01T03:37:42.318Z,2
2023-02-01T03:39:26.035Z,2
2023-02-01T03:41:09.733Z,2
2023-02-01T03:42:53.419Z,2
2023-02-01T03:44:37.151Z,2
2023-02-01T03:46:20.837Z,2
2023-02-01T03:48:04.541Z,2
2023-02-01T03:49:48.246Z,2
2023-02-01T03:51:32.028Z,2
2023-02-01T03:53:15.644Z,2
2023-02-01T03:54:59.350Z,2
2023-02-01T03:56:43.072Z,2
2023-02-01T03:58:26.791Z,2
2023-02-01T04:00:10.448Z,2
2023-02-01T04:01:54.200Z,2
2023-02-01T04:03:37.856Z,2
2023-02-01T04:05:21.562Z,2
2023-02-01T04:07:05.275Z,2
2023-02-01T04:08:48.966Z,2
2023-02-01T04:10:32.680Z,2
2023-02-01T04:12:16.368Z,2
2023-02-01T04:14:00.100Z,1
2023-02-01T04:15:43.770Z,1
2023-02-01T04:17:27.498Z,3
2023-02-01T04:19:11.206Z,2
2023-02-01T04:20:54.904Z,1
2023-02-01T04:22:38.608Z,2
2023-02-01T04:24:22.287Z,1
2023-02-01T04:26:05.993Z,2
2023-02-01T04:27:49.805Z,2
2023-02-01T04:29:33.401Z,3
2023-02-01T04:31:17.104Z,2
2023-02-01T04:33:00.809Z,2
2023-02-01T04:34:44.504Z,2
2023-02-01T04:36:28.255Z,2
2023-02-01T04:38:11.923Z,3
2023-02-01T04:39:55.627Z,2
2023-02-01T04:41:39.328Z,2
2023-02-01T04:43:23.033Z,2
2023-02-01T04:45:06.723Z,2
2023-02-01T04:46:50.457Z,2
2023-02-01T04:48:34.128Z,2
2023-02-01T04:50:17.830Z,2
2023-02-01T04:52:01.559Z,2
2023-02-01T04:53:45.236Z,3
2023-02-01T04:55:28.949Z,2
2023-02-01T04:57:12.646Z,2
2023-02-01T04:58:56.335Z,1
2023-02-01T05:00:40.046Z,2
2023-02-01T05:02:23.750Z,2
2023-02-01T05:04:07.449Z,2
2023-02-01T05:05:51.154Z,2
2023-02-01T05:07:34.849Z,2
2023-02-01T05:09:18.555Z,2
2023-02-01T05:11:02.296Z,3
2023-02-01T05:12:45.954Z,1
2023-02-01T05:14:29.662Z,2
2023-02-01T05:16:13.368Z,2
2023-02-01T05:17:57.064Z,2
2023-02-01T05:19:40.773Z,2
2023-02-01T05:21:24.505Z,2
2023-02-01T05:23:08.174Z,3
2023-02-01T05:24:51.877Z,1
2023-02-01T05:26:35.610Z,2
2023-02-01T05:28:19.286Z,3
2023-02-01T05:30:02.986Z,2
2023-02-01T05:31:46.688Z,2
2023-02-01T05:33:30.393Z,2
2023-02-01T05:35:14.101Z,2
2023-02-01T05:36:57.798Z,2
2023-02-01T05:38:41.495Z,2
2023-02-01T05:40:25.202Z,2
2023-02-01T05:42:08.909Z,1
2023-02-01T05:43:52.611Z,2
2023-02-01T05:45:36.323Z,2
2023-02-01T05:47:20.027Z,0
2023-02-01T05:49:03.731Z,2
2023-02-01T05:50:47.421Z,2
2023-02-01T05:52:31.119Z,3
2023-02-01T05:54:14.831Z,2
2023-02-01T05:55:58.533Z,2
2023-02-01T05:57:42.242Z,3
2023-02-01T05:59:25.992Z,3
2023-02-01T06:01:09.637Z,3
2023-02-01T06:02:53.344Z,2
2023-02-01T06:04:37.046Z,2
2023-02-01T06:06:20.770Z,3
2023-02-01T06:08:04.515Z,2
2023-02-01T06:09:48.148Z,3
2023-02-01T06:11:31.866Z,3
2023-02-01T06:13:15.575Z,3
2023-02-01T06:14:59.360Z,3
2023-02-01T06:16:42.961Z,3
2023-02-01T06:18:26.670Z,3
2023-02-01T06:20:10.366Z,3
2023-02-01T06:21:54.076Z,3
2023-02-01T06:23:37.777Z,3
2023-02-01T06:25:21.480Z,3
2023-02-01T06:27:05.185Z,4
2023-02-01T06:28:48.879Z,4
2023-02-01T06:30:32.578Z,2
2023-02-01T06:32:16.293Z,4
2023-02-01T06:34:00.037Z,3
2023-02-01T06:35:43.750Z,4
2023-02-01T06:37:27.391Z,5
2023-02-01T06:39:11.091Z,5
2023-02-01T06:40:54.811Z,5
2023-02-01T06:42:38.498Z,6
2023-02-01T06:44:22.210Z,6
2023-02-01T06:46:05.912Z,6
2023-02-01T06:47:49.593Z,7
2023-02-01T06:49:33.309Z,8
2023-02-01T06:51:17.012Z,11
2023-02-01T06:53:00.705Z,15
2023-02-01T06:54:44.407Z,16
2023-02-01T06:56:28.164Z,17
2023-02-01T06:58:11.811Z,19
2023-02-01T06:59:55.520Z,21
2023-02-01T07:01:39.421Z,28
2023-02-01T07:03:22.953Z,28
2023-02-01T07:05:06.673Z,31
2023-02-01T07:06:50.338Z,33
2023-02-01T07:08:34.038Z,37
2023-02-01T07:10:17.784Z,40
2023-02-01T07:12:01.481Z,41
2023-02-01T07:13:45.146Z,45
2023-02-01T07:15:28.844Z,40
2023-02-01T07:17:12.539Z,40
2023-02-01T07:18:56.274Z,38
2023-02-01T07:20:39.958Z,37
2023-02-01T07:22:23.665Z,35
2023-02-01T07:24:07.358Z,35
2023-02-01T07:25:51.080Z,40
2023-02-01T07:27:34.800Z,45
2023-02-01T07:29:18.467Z,51
2023-02-01T07:31:02.168Z,58
2023-02-01T07:32:45.866Z,62
2023-02-01T07:34:29.576Z,61
2023-02-01T07:36:13.269Z,61
2023-02-01T07:37:56.977Z,65
2023-02-01T07:39:40.685Z,60
2023-02-01T07:41:24.398Z,58
2023-02-01T07:43:08.084Z,75
2023-02-01T07:44:51.773Z,103
2023-02-01T07:46:35.490Z,109
2023-02-01T07:48:19.189Z,107
2023-02-01T07:50:02.886Z,114
2023-02-01T07:51:46.591Z,123
2023-02-01T07:53:30.299Z,119
2023-02-01T07:55:14.000Z,116
2023-02-01T07:56:57.804Z,103
2023-02-01T07:58:41.493Z,85
2023-02-01T08:00:25.175Z,84
2023-02-01T08:02:08.911Z,83
2023-02-01T08:03:52.537Z,84
2023-02-01T08:05:36.369Z,84
2023-02-01T08:07:20.078Z,81
2023-02-01T08:09:03.621Z,97
2023-02-01T08:10:47.327Z,106
2023-02-01T08:12:31.152Z,89
2023-02-01T08:14:14.794Z,103
2023-02-01T08:15:58.455Z,110
2023-02-01T08:17:42.137Z,121
2023-02-01T08:19:25.846Z,151
2023-02-01T08:21:09.568Z,153
2023-02-01T08:22:53.243Z,143
2023-02-01T08:24:36.954Z,134
2023-02-01T08:26:20.656Z,136
2023-02-01T08:28:04.359Z,153
2023-02-01T08:29:48.064Z,199
2023-02-01T08:31:31.753Z,263
2023-02-01T08:33:15.455Z,302
2023-02-01T08:34:59.178Z,317
2023-02-01T08:36:42.868Z,365
2023-02-01T08:38:26.566Z,436
2023-02-01T08:40:10.277Z,562
2023-02-01T08:43:37.692Z,700
2023-02-01T08:45:21.384Z,707
2023-02-01T08:47:05.084Z,736
2023-02-01T08:48:48.786Z,667
2023-02-01T08:50:32.523Z,435
2023-02-01T08:52:16.194Z,341
2023-02-01T08:53:59.905Z,346
2023-02-01T08:55:43.615Z,376
2023-02-01T08:57:27.336Z,362
2023-02-01T08:59:10.995Z,315
2023-02-01T09:00:54.704Z,319
2023-02-01T09:02:38.411Z,316
2023-02-01T09:04:22.113Z,249
2023-02-01T09:06:05.836Z,235
2023-02-01T09:07:49.520Z,190
2023-02-01T09:09:33.220Z,175
2023-02-01T09:11:16.922Z,177
2023-02-01T09:13:00.654Z,160
2023-02-01T09:14:44.441Z,128
2023-02-01T09:16:28.182Z,114
2023-02-01T09:18:11.896Z,100
2023-02-01T09:19:55.568Z,96
2023-02-01T09:21:39.186Z,97
2023-02-01T09:23:22.905Z,108
2023-02-01T09:25:06.650Z,131
2023-02-01T09:26:50.329Z,158
2023-02-01T09:28:33.956Z,202
2023-02-01T09:30:17.710Z,257
2023-02-01T09:32:01.390Z,275
2023-02-01T09:33:45.248Z,289
2023-02-01T09:35:28.841Z,333
2023-02-01T09:37:12.586Z,389
2023-02-01T09:38:56.356Z,428
2023-02-01T09:40:39.976Z,438
2023-02-01T09:42:23.587Z,410
2023-02-01T09:44:07.447Z,388
2023-02-01T09:45:51.138Z,370
2023-02-01T09:47:34.834Z,447
2023-02-01T09:49:18.560Z,479
2023-02-01T09:51:02.243Z,459
2023-02-01T09:52:45.974Z,509
2023-02-01T09:54:29.578Z,564
2023-02-01T09:56:13.214Z,719
2023-02-01T09:57:56.895Z,737
2023-02-01T09:59:40.815Z,626
2023-02-01T10:01:24.462Z,561
2023-02-01T10:03:08.165Z,540
2023-02-01T10:04:51.873Z,610
2023-02-01T10:06:35.588Z,564
2023-02-01T10:08:19.284Z,497
2023-02-01T10:10:02.827Z,448
2023-02-01T10:11:46.646Z,418
2023-02-01T10:13:30.331Z,410
2023-02-01T10:15:14.090Z,509
2023-02-01T10:16:57.816Z,483
2023-02-01T10:18:41.562Z,460
2023-02-01T10:20:25.032Z,465
2023-02-01T10:22:08.926Z,387
2023-02-01T10:23:52.657Z,386
2023-02-01T10:25:36.293Z,354
2023-02-01T10:27:20.063Z,369
2023-02-01T10:29:03.722Z,446
2023-02-01T10:30:47.330Z,463
2023-02-01T10:32:31.192Z,488
2023-02-01T10:34:14.657Z,467
2023-02-01T10:35:58.505Z,424
2023-02-01T10:37:42.073Z,422
2023-02-01T10:39:25.786Z,407
2023-02-01T10:41:09.677Z,347
2023-02-01T10:42:53.243Z,359
2023-02-01T10:44:37.020Z,390
2023-02-01T10:46:20.756Z,431
2023-02-01T10:48:04.451Z,457
2023-02-01T10:49:48.146Z,415
2023-02-01T10:51:31.688Z,393
2023-02-01T10:53:15.556Z,379
2023-02-01T10:54:59.293Z,377
2023-02-01T10:56:42.954Z,401
2023-02-01T10:58:26.489Z,463
2023-02-01T11:00:10.196Z,480
2023-02-01T11:01:54.081Z,467
2023-02-01T11:03:37.771Z,446
2023-02-01T11:05:21.472Z,462
2023-02-01T11:07:05.016Z,602
2023-02-01T11:08:48.828Z,724
2023-02-01T11:10:32.579Z,737
2023-02-01T11:12:16.272Z,738
2023-02-01T11:13:59.978Z,736
2023-02-01T11:15:43.669Z,645
2023-02-01T11:17:27.432Z,542
2023-02-01T11:19:11.160Z,508
2023-02-01T11:20:54.813Z,520
2023-02-01T11:22:38.531Z,507
2023-02-01T11:24:22.208Z,496
2023-02-01T11:26:05.833Z,456
2023-02-01T11:27:49.645Z,463
2023-02-01T11:29:33.328Z,464
2023-02-01T11:31:17.017Z,466
2023-02-01T11:33:00.687Z,478
2023-02-01T11:34:44.439Z,569
2023-02-01T11:36:28.127Z,483
2023-02-01T11:38:11.829Z,499
2023-02-01T11:39:55.536Z,579
2023-02-01T11:41:39.061Z,608
2023-02-01T11:43:22.924Z,517
2023-02-01T11:45:06.651Z,447
2023-02-01T11:46:50.309Z,424
2023-02-01T11:48:34.134Z,460
2023-02-01T11:50:17.697Z,535
2023-02-01T11:52:01.508Z,594
2023-02-01T11:53:45.149Z,648
2023-02-01T11:55:28.681Z,687
2023-02-01T11:57:12.381Z,675
2023-02-01T11:58:56.084Z,572
2023-02-01T12:00:39.939Z,482
2023-02-01T12:02:23.675Z,414
2023-02-01T12:04:07.383Z,432
2023-02-01T12:05:51.095Z,389
2023-02-01T12:07:34.785Z,383
2023-02-01T12:09:18.471Z,396
2023-02-01T12:11:02.112Z,413
2023-02-01T12:12:45.718Z,466
2023-02-01T12:14:29.587Z,520
2023-02-01T12:16:13.259Z,564
2023-02-01T12:17:56.970Z,505
2023-02-01T12:19:40.684Z,476
2023-02-01T12:21:24.410Z,406
2023-02-01T12:23:08.108Z,345
2023-02-01T12:24:51.776Z,286
2023-02-01T12:26:35.533Z,247
2023-02-01T12:28:19.206Z,227
2023-02-01T12:30:02.921Z,222
2023-02-01T12:31:46.548Z,214
2023-02-01T12:33:30.323Z,214
2023-02-01T12:35:13.973Z,224
2023-02-01T12:36:57.752Z,253
2023-02-01T12:38:41.432Z,274
2023-02-01T12:40:25.119Z,280
2023-02-01T12:42:08.770Z,259
2023-02-01T12:43:52.539Z,268
2023-02-01T12:45:36.254Z,267
2023-02-01T12:47:19.933Z,221
2023-02-01T12:49:03.558Z,209
2023-02-01T12:50:47.330Z,190
2023-02-01T12:52:31.053Z,186
2023-02-01T12:54:14.591Z,192
2023-02-01T12:55:58.427Z,194
2023-02-01T12:57:42.168Z,170
2023-02-01T12:59:25.916Z,166
2023-02-01T13:01:09.505Z,174
2023-02-01T13:02:53.264Z,196
2023-02-01T13:04:36.916Z,187
2023-02-01T13:06:20.664Z,207
2023-02-01T13:08:04.207Z,186
2023-02-01T13:09:48.057Z,180
2023-02-01T13:11:31.607Z,195
2023-02-01T13:13:15.454Z,173
2023-02-01T13:14:59.023Z,161
2023-02-01T13:16:42.856Z,171
2023-02-01T13:18:26.406Z,187
2023-02-01T13:20:10.116Z,199
2023-02-01T13:21:53.933Z,205
2023-02-01T13:23:37.689Z,190
2023-02-01T13:25:21.234Z,191
2023-02-01T13:27:04.987Z,208
2023-02-01T13:28:48.860Z,218
2023-02-01T13:30:32.523Z,227
2023-02-01T13:32:16.066Z,253
2023-02-01T13:33:59.940Z,240
2023-02-01T13:35:43.506Z,255
2023-02-01T13:37:27.292Z,235
2023-02-01T13:39:11.097Z,189
2023-02-01T13:40:54.563Z,169
2023-02-01T13:42:38.446Z,164
2023-02-01T13:44:22.159Z,150
2023-02-01T13:46:05.722Z,161
2023-02-01T13:47:49.540Z,161
2023-02-01T13:49:33.337Z,151
2023-02-01T13:51:17.044Z,157
2023-02-01T13:53:00.718Z,170
2023-02-01T13:54:44.336Z,156
2023-02-01T13:56:28.033Z,154
2023-02-01T13:58:11.767Z,164
2023-02-01T13:59:55.457Z,169
2023-02-01T14:01:39.128Z,172
2023-02-01T14:03:22.881Z,195
2023-02-01T14:05:06.530Z,219
2023-02-01T14:06:50.230Z,253
2023-02-01T14:08:33.963Z,274
2023-02-01T14:10:17.645Z,246
2023-02-01T14:12:01.367Z,218
2023-02-01T14:13:45.073Z,188
2023-02-01T14:15:28.865Z,177
2023-02-01T14:17:12.525Z,168
2023-02-01T14:18:56.158Z,165
2023-02-01T14:20:39.850Z,153
2023-02-01T14:22:23.596Z,177
2023-02-01T14:24:07.121Z,183
2023-02-01T14:25:50.827Z,167
2023-02-01T14:27:34.709Z,168
2023-02-01T14:29:18.381Z,173
2023-02-01T14:31:02.100Z,172
2023-02-01T14:32:45.649Z,132
2023-02-01T14:34:29.472Z,113
2023-02-01T14:36:13.228Z,105
2023-02-01T14:37:56.910Z,103
2023-02-01T14:39:40.569Z,90
2023-02-01T14:41:24.405Z,83
2023-02-01T14:43:08.078Z,69
2023-02-01T14:44:51.729Z,62
2023-02-01T14:46:35.273Z,69
2023-02-01T14:48:19.110Z,71
2023-02-01T14:50:02.908Z,79
2023-02-01T14:51:46.359Z,92
2023-02-01T14:53:30.308Z,112
2023-02-01T14:55:13.958Z,121
2023-02-01T14:56:57.639Z,107
2023-02-01T14:58:41.308Z,100
2023-02-01T15:00:25.084Z,92
2023-02-01T15:02:08.580Z,82
2023-02-01T15:03:52.454Z,74
2023-02-01T15:05:36.157Z,70
2023-02-01T15:07:19.883Z,79
2023-02-01T15:09:03.562Z,80
2023-02-01T15:10:47.245Z,82
2023-02-01T15:12:30.932Z,83
2023-02-01T15:14:14.573Z,76
2023-02-01T15:15:58.378Z,70
2023-02-01T15:17:41.920Z,66
2023-02-01T15:19:25.804Z,70
2023-02-01T15:21:09.518Z,72
2023-02-01T15:22:53.182Z,61
2023-02-01T15:24:36.939Z,53
2023-02-01T15:26:20.604Z,52
2023-02-01T15:28:04.271Z,58
2023-02-01T15:29:47.989Z,82
2023-02-01T15:31:31.700Z,136
2023-02-01T15:33:15.476Z,149
2023-02-01T15:34:59.062Z,144
2023-02-01T15:36:42.786Z,137
2023-02-01T15:38:26.512Z,135
2023-02-01T15:40:10.189Z,136
2023-02-01T15:41:53.921Z,143
2023-02-01T15:43:37.612Z,161
2023-02-01T15:45:21.139Z,142
2023-02-01T15:47:05.015Z,125
2023-02-01T15:48:48.557Z,100
2023-02-01T15:50:32.478Z,83
2023-02-01T15:52:16.147Z,70
2023-02-01T15:53:59.664Z,67
2023-02-01T15:55:43.555Z,70
2023-02-01T15:57:27.214Z,57
2023-02-01T15:59:10.816Z,45
2023-02-01T16:00:54.642Z,38
2023-02-01T16:02:38.308Z,35
2023-02-01T16:04:21.870Z,32
2023-02-01T16:06:05.572Z,30
2023-02-01T16:07:49.382Z,27
2023-02-01T16:09:33.132Z,29
2023-02-01T16:11:16.789Z,32
2023-02-01T16:13:00.551Z,34
2023-02-01T16:14:44.299Z,32
2023-02-01T16:16:27.951Z,27
2023-02-01T16:18:11.653Z,20
2023-02-01T16:19:55.399Z,16
2023-02-01T16:21:39.055Z,14
2023-02-01T16:23:22.793Z,12
2023-02-01T16:25:06.456Z,10
2023-02-01T16:26:50.175Z,10
2023-02-01T16:28:33.876Z,10
2023-02-01T16:30:17.592Z,8
2023-02-01T16:32:01.335Z,8
2023-02-01T16:33:44.983Z,6
2023-02-01T16:35:28.698Z,4
2023-02-01T16:37:12.411Z,4
2023-02-01T16:38:56.121Z,3
2023-02-01T16:40:39.797Z,4
2023-02-01T16:42:23.569Z,3
2023-02-01T16:44:07.196Z,2
2023-02-01T16:45:50.899Z,2
2023-02-01T16:47:34.616Z,2
2023-02-01T16:49:18.282Z,11
2023-02-01T16:51:02.028Z,2
2023-02-01T16:52:45.751Z,2
2023-02-01T16:54:29.425Z,3
2023-02-01T16:56:13.118Z,2
2023-02-01T16:57:56.655Z,2
2023-02-01T16:59:40.481Z,2
2023-02-01T17:01:24.310Z,2
2023-02-01T17:03:07.931Z,3
2023-02-01T17:04:51.643Z,2
2023-02-01T17:06:35.177Z,2
2023-02-01T17:08:18.865Z,2
2023-02-01T17:10:02.677Z,2
2023-02-01T17:11:46.462Z,1
2023-02-01T17:13:30.136Z,2
2023-02-01T17:15:13.855Z,2
2023-02-01T17:16:58.464Z,2
2023-02-01T17:18:41.259Z,2
2023-02-01T17:20:24.972Z,11
2023-02-01T17:22:08.566Z,11
2023-02-01T17:23:52.401Z,11
2023-02-01T17:25:36.072Z,11
2023-02-01T17:27:19.835Z,12
2023-02-01T17:29:03.522Z,12
2023-02-01T17:30:47.158Z,11
2023-02-01T17:32:30.700Z,12
2023-02-01T17:34:14.565Z,11
2023-02-01T17:35:58.295Z,12
2023-02-01T17:37:41.992Z,10
2023-02-01T17:39:25.731Z,12
2023-02-01T17:41:09.225Z,13
2023-02-01T17:42:52.935Z,11
2023-02-01T17:44:36.637Z,12
2023-02-01T17:46:20.355Z,11
2023-02-01T17:48:04.147Z,11
2023-02-01T17:49:47.879Z,11
2023-02-01T17:51:31.632Z,12
2023-02-01T17:53:15.316Z,12
2023-02-01T17:54:59.048Z,8
2023-02-01T17:56:42.751Z,12
2023-02-01T17:58:26.486Z,12
2023-02-01T18:00:10.675Z,12
2023-02-01T18:01:53.817Z,12
2023-02-01T18:03:37.586Z,12
2023-02-01T18:05:21.062Z,11
2023-02-01T18:07:04.869Z,11
2023-02-01T18:08:48.673Z,11
2023-02-01T18:10:32.393Z,12
2023-02-01T18:12:16.036Z,12
2023-02-01T18:13:59.732Z,12
2023-02-01T18:15:43.434Z,12
2023-02-01T18:17:27.177Z,12
2023-02-01T18:19:10.863Z,12
2023-02-01T18:20:54.552Z,11
2023-02-01T18:22:38.272Z,12
2023-02-01T18:24:21.936Z,13
2023-02-01T18:26:05.593Z,12
2023-02-01T18:27:49.359Z,12
2023-02-01T18:29:33.105Z,11
2023-02-01T18:31:16.763Z,11
2023-02-01T18:33:00.527Z,10
2023-02-01T18:34:44.161Z,12
2023-02-01T18:36:27.865Z,12
2023-02-01T18:38:11.560Z,12
2023-02-01T18:39:55.290Z,11
2023-02-01T18:41:38.942Z,12
2023-02-01T18:43:22.523Z,12
2023-02-01T18:45:06.376Z,11
2023-02-01T18:46:50.091Z,13
2023-02-01T18:48:33.644Z,12
2023-02-01T18:50:17.327Z,12
2023-02-01T18:52:01.029Z,11
2023-02-01T18:53:44.872Z,3
2023-02-01T18:55:28.568Z,2
2023-02-01T18:57:12.200Z,3
2023-02-01T18:58:55.860Z,2
2023-02-01T19:00:39.570Z,2
2023-02-01T19:02:23.241Z,58
2023-02-01T19:04:06.996Z,57
2023-02-01T19:05:50.784Z,55
2023-02-01T19:07:34.549Z,54
2023-02-01T19:09:18.148Z,60
2023-02-01T19:11:01.764Z,60
2023-02-01T19:12:45.572Z,60
2023-02-01T19:14:29.359Z,59
2023-02-01T19:16:12.887Z,58
2023-02-01T19:17:56.582Z,59
2023-02-01T19:19:40.287Z,59
2023-02-01T19:21:24.111Z,59
2023-02-01T19:23:07.691Z,9
2023-02-01T19:24:51.488Z,8
2023-02-01T19:26:35.198Z,10
2023-02-01T19:28:18.837Z,9
2023-02-01T19:30:02.584Z,18
2023-02-01T19:31:46.284Z,18
2023-02-01T19:33:29.896Z,18
2023-02-01T19:35:13.737Z,18
2023-02-01T19:36:57.449Z,18
2023-02-01T19:38:41.144Z,18
2023-02-01T19:40:24.912Z,18
2023-02-01T19:42:08.558Z,18
2023-02-01T19:43:52.252Z,18
2023-02-01T19:45:35.974Z,18
2023-02-01T19:47:19.519Z,18
2023-02-01T19:49:03.409Z,18
2023-02-01T19:50:46.935Z,18
2023-02-01T19:52:30.725Z,18
2023-02-01T19:54:14.322Z,3
2023-02-01T19:55:58.197Z,3
2023-02-01T19:57:41.806Z,3
2023-02-01T19:59:25.587Z,3
2023-02-01T20:01:08.414Z,4
2023-02-01T20:02:52.125Z,2
2023-02-01T20:04:35.766Z,3
2023-02-01T20:06:19.378Z,3
2023-02-01T20:08:03.119Z,3
2023-02-01T20:09:46.910Z,3
2023-02-01T20:11:30.578Z,3
2023-02-01T20:13:14.213Z,3
2023-02-01T20:14:58.010Z,3
2023-02-01T20:16:41.601Z,12
2023-02-01T20:18:25.302Z,12
2023-02-01T20:20:09.040Z,12
2023-02-01T20:21:52.869Z,3
2023-02-01T20:23:36.654Z,2
2023-02-01T20:25:20.177Z,3
2023-02-01T20:27:04.759Z,2
2023-02-01T20:28:48.399Z,3
2023-02-01T20:30:32.147Z,3
2023-02-01T20:32:15.881Z,3
2023-02-01T20:33:59.501Z,4
2023-02-01T20:37:26.997Z,3
2023-02-01T20:39:10.661Z,4
2023-02-01T20:40:54.488Z,3
2023-02-01T20:42:38.036Z,3
2023-02-01T20:44:21.852Z,3
2023-02-01T20:46:05.474Z,3
2023-02-01T20:47:49.233Z,3
2023-02-01T20:49:32.824Z,3
2023-02-01T20:51:16.564Z,3
2023-02-01T20:53:00.417Z,3
2023-02-01T20:54:44.086Z,3
2023-02-01T20:56:27.833Z,3
2023-02-01T20:58:11.511Z,3
2023-02-01T20:59:55.217Z,3
2023-02-01T21:01:38.872Z,3
2023-02-01T21:03:22.452Z,4
2023-02-01T21:05:06.191Z,3
2023-02-01T21:06:49.990Z,4
2023-02-01T21:08:33.617Z,3
2023-02-01T21:10:17.288Z,3
2023-02-01T21:12:01.060Z,4
2023-02-01T21:13:44.779Z,3
2023-02-01T21:15:28.562Z,3
2023-02-01T21:17:12.206Z,3
2023-02-01T21:18:55.883Z,3
2023-02-01T21:20:39.558Z,3
2023-02-01T21:22:23.309Z,3
2023-02-01T21:24:07.100Z,2
2023-02-01T21:25:50.699Z,3
2023-02-01T21:27:34.461Z,4
2023-02-01T21:29:18.067Z,3
2023-02-01T21:31:01.844Z,3
2023-02-01T21:32:45.401Z,4
2023-02-01T21:34:29.252Z,3
2023-02-01T21:36:12.960Z,3
2023-02-01T21:37:56.512Z,3
2023-02-01T21:39:40.349Z,2
2023-02-01T21:41:24.039Z,2
2023-02-01T21:43:07.786Z,3
2023-02-01T21:44:51.328Z,3
2023-02-01T21:46:35.158Z,4
2023-02-01T21:48:18.902Z,3
2023-02-01T21:50:02.443Z,2
2023-02-01T21:51:46.136Z,3
2023-02-01T21:53:29.999Z,3
2023-02-01T21:55:13.703Z,3
2023-02-01T21:56:57.337Z,2
2023-02-01T21:58:41.073Z,3
2023-02-01T22:00:24.783Z,3
2023-02-01T22:02:08.384Z,3
2023-02-01T22:03:52.134Z,3
2023-02-01T22:05:35.888Z,3
2023-02-01T22:07:19.623Z,3
2023-02-01T22:09:03.275Z,3
2023-02-01T22:10:46.956Z,2
2023-02-01T22:12:30.756Z,2
2023-02-01T22:14:14.483Z,11
2023-02-01T22:15:57.960Z,11
2023-02-01T22:17:41.671Z,11
2023-02-01T22:19:25.362Z,11
2023-02-01T22:21:09.075Z,11
2023-02-01T22:22:52.803Z,2
2023-02-01T22:24:36.473Z,3
2023-02-01T22:26:20.194Z,2
2023-02-01T22:28:03.876Z,3
2023-02-01T22:29:47.603Z,3
2023-02-01T22:31:31.457Z,2
2023-02-01T22:33:15.124Z,3
2023-02-01T22:34:58.850Z,2
2023-02-01T22:36:42.557Z,3
2023-02-01T22:38:26.222Z,3
2023-02-01T22:40:09.870Z,3
2023-02-01T22:41:53.599Z,11
2023-02-01T22:43:37.205Z,11
2023-02-01T22:45:20.948Z,10
2023-02-01T22:47:04.656Z,11
2023-02-01T22:48:48.361Z,3
2023-02-01T22:50:32.051Z,3
2023-02-01T22:52:15.695Z,2
2023-02-01T22:53:59.490Z,2
2023-02-01T22:55:43.101Z,2
2023-02-01T22:57:26.857Z,3
2023-02-01T22:59:10.547Z,2
2023-02-01T23:00:54.206Z,2
2023-02-01T23:02:37.904Z,2
2023-02-01T23:04:21.695Z,3
2023-02-01T23:06:05.375Z,3
2023-02-01T23:07:49.006Z,3
2023-02-01T23:09:32.710Z,3
2023-02-01T23:11:16.430Z,1
2023-02-01T23:13:00.115Z,2
2023-02-01T23:14:43.810Z,2
2023-02-01T23:16:27.512Z,2
2023-02-01T23:18:11.210Z,2
2023-02-01T23:19:54.920Z,2
2023-02-01T23:21:38.647Z,3
2023-02-01T23:23:22.342Z,2
2023-02-01T23:25:06.087Z,3
2023-02-01T23:26:49.874Z,2
2023-02-01T23:28:33.477Z,1
2023-02-01T23:30:17.142Z,2
2023-02-01T23:32:00.979Z,3
2023-02-01T23:33:44.610Z,3
2023-02-01T23:35:28.270Z,2
2023-02-01T23:37:12.083Z,2
2023-02-01T23:38:55.685Z,2
2023-02-01T23:40:39.408Z,11
2023-02-01T23:42:23.066Z,11
2023-02-01T23:44:06.835Z,10
2023-02-01T23:45:50.586Z,2
2023-02-01T23:47:34.269Z,2
2023-02-01T23:49:17.944Z,3
2023-02-01T23:51:01.691Z,3
2023-02-01T23:52:45.291Z,3
2023-02-01T23:54:29.054Z,2
2023-02-01T23:56:12.730Z,2
2023-02-01T23:57:56.395Z,3
2023-02-01T23:59:40.139Z,2
